Accueil
METAR-TAF:

METAR-TAF

Aéroports :

Aéroport de Bournemouth

Bornemouth, Angleterre

latitude: 50-47N, longitude: 001-50W, altitude: 11 m

Observation

Le bulletin a été fait il y a 39 minutes, à 17:50 UTC
Vent 3 kt de sud
Température 8°C
Humidité 66%
Pression 1039 hPa
Visibilité 10 km ou plus
pas de nuages en-dessous de 1500 mètres et pas de cumulonimbus.

METAR: EGHH 271750Z 18003KT CAVOK 08/02 Q1039

Heure: 18:29 (18:29 UTC)

Prévision

Le bulletin a été fait il y a 1 heure et 32 minutes, à 16:57 UTC
Prévision valable du 27 à 18 UTC au 27 à 22 UTC
Vent 6 kt de sud
Visibilité 10 km ou plus
Quelques nuages à une hauteur de 4500 ft
Probabilité 30% :
Temporairement
du 27 à 20 UTC au 27 à 22 UTC
Visibilité: 8000 m

TAF: EGHH 271657Z 2718/2722 19006KT 9999 FEW045 PROB30 TEMPO 2720/2722 8000

Observations et prévisions météorologiques de plus de 4000 aéroports (messages METAR et TAF).

Les stations disponibles sont représentées par des disques jaunes et rouges sur la carte.

Passer la souris dessus pour voir le nom de la station.

Cliquer dessus pour voir les observations et prévisions météorologiques.

Pour changer de carte: cliquez sur les boutons verts avec une croix noire pour zoomer, sur le bouton vert avec un tiret pour effectuer un zoom arrière, ou sur les flèches vertes pour les cartes adjacentes.


METAR-TAF: